KLM58W EBBR-EHAM
Flight info
| Callsign | KLM58W |
|---|---|
| Flight time | 0h 25m |
| Altitude | 14000 |
| Route | HELEN |
| Aircraft | B77W/H-SDE1E2E3FGHIJ2J3J4J5M1RWXY/LB1D1 |
Departure
| Time | 2026-05-06 17:30 |
|---|---|
| Airport | Brussels Airport (EBBR) |
Arrival
| Time | 2026-05-06 17:55 |
|---|---|
| Airport | Amsterdam Airport Schiphol (EHAM) |
| Time | Latitude | Longitude | Altitude | Speed | Heading |
|---|---|---|---|---|---|
| 2026-05-06 16:58 | 50.89929 | 4.46883 | 135 ft | 0 kts | 155° |
| 2026-05-06 17:18 | 50.89950 | 4.46866 | 130 ft | 4 kts | 146° |
| 2026-05-06 17:18 | 50.89970 | 4.46839 | 135 ft | 4 kts | 128° |
| 2026-05-06 17:18 | 50.89983 | 4.46804 | 131 ft | 4 kts | 97° |
| 2026-05-06 17:18 | 50.89982 | 4.46775 | 136 ft | 0 kts | 65° |
| 2026-05-06 17:21 | 50.89984 | 4.46785 | 134 ft | 6 kts | 65° |
| 2026-05-06 17:21 | 50.90032 | 4.46947 | 127 ft | 21 kts | 64° |
| 2026-05-06 17:21 | 50.90091 | 4.47148 | 126 ft | 18 kts | 65° |
| 2026-05-06 17:22 | 50.90143 | 4.47334 | 123 ft | 18 kts | 66° |
| 2026-05-06 17:22 | 50.90228 | 4.47440 | 124 ft | 17 kts | 22° |
| 2026-05-06 17:22 | 50.90295 | 4.47589 | 122 ft | 17 kts | 66° |
| 2026-05-06 17:22 | 50.90345 | 4.47761 | 122 ft | 17 kts | 65° |
| 2026-05-06 17:23 | 50.90400 | 4.47949 | 121 ft | 22 kts | 65° |
| 2026-05-06 17:23 | 50.90465 | 4.48174 | 122 ft | 23 kts | 65° |
| 2026-05-06 17:23 | 50.90530 | 4.48401 | 122 ft | 23 kts | 65° |
| 2026-05-06 17:23 | 50.90595 | 4.48627 | 123 ft | 23 kts | 65° |
| 2026-05-06 17:24 | 50.90660 | 4.48854 | 125 ft | 23 kts | 65° |
| 2026-05-06 17:24 | 50.90701 | 4.49080 | 124 ft | 22 kts | 116° |
| 2026-05-06 17:24 | 50.90573 | 4.49189 | 123 ft | 21 kts | 154° |
| 2026-05-06 17:24 | 50.90446 | 4.49281 | 123 ft | 20 kts | 157° |
| 2026-05-06 17:25 | 50.90322 | 4.49387 | 125 ft | 20 kts | 147° |
| 2026-05-06 17:25 | 50.90185 | 4.49366 | 131 ft | 20 kts | 194° |
| 2026-05-06 17:25 | 50.90047 | 4.49309 | 136 ft | 20 kts | 194° |
| 2026-05-06 17:25 | 50.89909 | 4.49255 | 142 ft | 20 kts | 195° |
| 2026-05-06 17:26 | 50.89772 | 4.49198 | 150 ft | 20 kts | 195° |
| 2026-05-06 17:26 | 50.89661 | 4.49146 | 156 ft | 14 kts | 205° |
| 2026-05-06 17:26 | 50.89578 | 4.49076 | 160 ft | 14 kts | 201° |
| 2026-05-06 17:26 | 50.89467 | 4.49026 | 164 ft | 21 kts | 194° |
| 2026-05-06 17:27 | 50.89331 | 4.48969 | 169 ft | 20 kts | 206° |
| 2026-05-06 17:27 | 50.89267 | 4.48778 | 169 ft | 21 kts | 250° |
| 2026-05-06 17:27 | 50.89219 | 4.48566 | 169 ft | 21 kts | 250° |
| 2026-05-06 17:27 | 50.89170 | 4.48352 | 169 ft | 21 kts | 250° |
| 2026-05-06 17:28 | 50.89121 | 4.48141 | 169 ft | 21 kts | 250° |
| 2026-05-06 17:28 | 50.89088 | 4.47999 | 169 ft | 8 kts | 249° |
| 2026-05-06 17:28 | 50.89060 | 4.47930 | 170 ft | 8 kts | 221° |
| 2026-05-06 17:28 | 50.88995 | 4.47915 | 176 ft | 11 kts | 168° |
| 2026-05-06 17:29 | 50.88942 | 4.48005 | 183 ft | 14 kts | 108° |
| 2026-05-06 17:29 | 50.88940 | 4.48192 | 188 ft | 21 kts | 72° |
| 2026-05-06 17:29 | 50.89054 | 4.48680 | 182 ft | 87 kts | 70° |
| 2026-05-06 17:29 | 50.89364 | 4.49994 | 195 ft | 161 kts | 69° |
| 2026-05-06 17:30 | 50.89760 | 4.51752 | 732 ft | 173 kts | 68° |
| 2026-05-06 17:30 | 50.90188 | 4.53598 | 1425 ft | 185 kts | 65° |
| 2026-05-06 17:30 | 50.90736 | 4.55489 | 2198 ft | 196 kts | 62° |
| 2026-05-06 17:30 | 50.91620 | 4.57274 | 2573 ft | 224 kts | 33° |
| 2026-05-06 17:31 | 50.93209 | 4.57858 | 3314 ft | 248 kts | 353° |
| 2026-05-06 17:31 | 50.94767 | 4.56655 | 4492 ft | 260 kts | 317° |
| 2026-05-06 17:31 | 50.95665 | 4.54346 | 5671 ft | 261 kts | 297° |
| 2026-05-06 17:31 | 50.96505 | 4.51765 | 6773 ft | 267 kts | 302° |
| 2026-05-06 17:32 | 50.97460 | 4.49246 | 7948 ft | 270 kts | 303° |
| 2026-05-06 17:32 | 50.98404 | 4.46875 | 8988 ft | 275 kts | 304° |
| 2026-05-06 17:32 | 50.99461 | 4.44275 | 10128 ft | 280 kts | 304° |
| 2026-05-06 17:32 | 51.00543 | 4.41657 | 10891 ft | 299 kts | 304° |
| 2026-05-06 17:33 | 51.01745 | 4.38782 | 11186 ft | 332 kts | 304° |
| 2026-05-06 17:33 | 51.03083 | 4.35625 | 11776 ft | 354 kts | 304° |
| 2026-05-06 17:33 | 51.04485 | 4.32324 | 12798 ft | 363 kts | 304° |
| 2026-05-06 17:33 | 51.05900 | 4.28987 | 13700 ft | 368 kts | 304° |
| 2026-05-06 17:34 | 51.07345 | 4.25576 | 13916 ft | 373 kts | 304° |
| 2026-05-06 17:34 | 51.08792 | 4.22151 | 13909 ft | 372 kts | 304° |
| 2026-05-06 17:34 | 51.10214 | 4.18776 | 13910 ft | 371 kts | 304° |
| 2026-05-06 17:34 | 51.11644 | 4.15375 | 13907 ft | 370 kts | 304° |
| 2026-05-06 17:35 | 51.13071 | 4.11975 | 13910 ft | 368 kts | 304° |
| 2026-05-06 17:35 | 51.14492 | 4.08589 | 13906 ft | 367 kts | 304° |
| 2026-05-06 17:35 | 51.15908 | 4.05210 | 13904 ft | 366 kts | 304° |
| 2026-05-06 17:36 | 51.18726 | 3.98460 | 13897 ft | 366 kts | 304° |
| 2026-05-06 17:36 | 51.20135 | 3.95081 | 13895 ft | 366 kts | 304° |
| 2026-05-06 17:36 | 51.21545 | 3.91718 | 13893 ft | 363 kts | 306° |
| 2026-05-06 17:36 | 51.23313 | 3.88847 | 13884 ft | 369 kts | 326° |
| 2026-05-06 17:37 | 51.25663 | 3.87156 | 13903 ft | 373 kts | 345° |
| 2026-05-06 17:37 | 51.28225 | 3.86681 | 13898 ft | 370 kts | 358° |
| 2026-05-06 17:37 | 51.30802 | 3.86643 | 13894 ft | 370 kts | 359° |
| 2026-05-06 17:37 | 51.33378 | 3.86632 | 13893 ft | 370 kts | 359° |
| 2026-05-06 17:38 | 51.35920 | 3.86618 | 13897 ft | 371 kts | 359° |
| 2026-05-06 17:38 | 51.38498 | 3.86593 | 13902 ft | 371 kts | 359° |
| 2026-05-06 17:38 | 51.41073 | 3.86553 | 13898 ft | 371 kts | 358° |
| 2026-05-06 17:38 | 51.43657 | 3.86503 | 13900 ft | 371 kts | 358° |
| 2026-05-06 17:39 | 51.46188 | 3.86448 | 13905 ft | 371 kts | 358° |
| 2026-05-06 17:39 | 51.48779 | 3.86388 | 13898 ft | 371 kts | 358° |
| 2026-05-06 17:39 | 51.51398 | 3.86326 | 13899 ft | 371 kts | 358° |
| 2026-05-06 17:39 | 51.53980 | 3.86264 | 13889 ft | 370 kts | 358° |
| 2026-05-06 17:40 | 51.56440 | 3.86203 | 13390 ft | 377 kts | 358° |
| 2026-05-06 17:40 | 51.59008 | 3.86140 | 12756 ft | 379 kts | 358° |
| 2026-05-06 17:40 | 51.61597 | 3.86079 | 12313 ft | 372 kts | 358° |
| 2026-05-06 17:40 | 51.64109 | 3.86018 | 11882 ft | 366 kts | 358° |
| 2026-05-06 17:41 | 51.66621 | 3.85958 | 11454 ft | 360 kts | 358° |
| 2026-05-06 17:41 | 51.68252 | 3.85918 | 11176 ft | 356 kts | 358° |
| 2026-05-06 17:41 | 51.70626 | 3.85954 | 10743 ft | 344 kts | 6° |
| 2026-05-06 17:41 | 51.72889 | 3.87068 | 10328 ft | 341 kts | 26° |
| 2026-05-06 17:42 | 51.74740 | 3.89170 | 9998 ft | 337 kts | 40° |
| 2026-05-06 17:42 | 51.76465 | 3.91671 | 9633 ft | 332 kts | 41° |
| 2026-05-06 17:42 | 51.78128 | 3.94120 | 9239 ft | 326 kts | 41° |
| 2026-05-06 17:42 | 51.79765 | 3.96528 | 8800 ft | 309 kts | 41° |
| 2026-05-06 17:43 | 51.81301 | 3.98776 | 8400 ft | 294 kts | 41° |
| 2026-05-06 17:43 | 51.82788 | 4.00944 | 7991 ft | 282 kts | 41° |
| 2026-05-06 17:43 | 51.84180 | 4.02965 | 7615 ft | 271 kts | 41° |
| 2026-05-06 17:43 | 51.85549 | 4.04950 | 7247 ft | 269 kts | 41° |
| 2026-05-06 17:44 | 51.86902 | 4.06910 | 6937 ft | 261 kts | 41° |
| 2026-05-06 17:44 | 51.88249 | 4.08863 | 6917 ft | 255 kts | 41° |
| 2026-05-06 17:44 | 51.89578 | 4.10790 | 6921 ft | 258 kts | 41° |
| 2026-05-06 17:44 | 51.90885 | 4.12687 | 6921 ft | 257 kts | 41° |
| 2026-05-06 17:45 | 51.92227 | 4.14571 | 6897 ft | 255 kts | 39° |
| 2026-05-06 17:45 | 51.93611 | 4.16397 | 6907 ft | 255 kts | 38° |
| 2026-05-06 17:45 | 51.94977 | 4.18183 | 6920 ft | 254 kts | 38° |
| 2026-05-06 17:45 | 51.96332 | 4.19958 | 6905 ft | 254 kts | 38° |
| 2026-05-06 17:46 | 51.97709 | 4.21766 | 6905 ft | 256 kts | 39° |
| 2026-05-06 17:46 | 51.99038 | 4.23514 | 6780 ft | 255 kts | 39° |
| 2026-05-06 17:46 | 52.00354 | 4.25251 | 6513 ft | 248 kts | 39° |
| 2026-05-06 17:46 | 52.01668 | 4.26987 | 6238 ft | 239 kts | 39° |
| 2026-05-06 17:47 | 52.02921 | 4.28647 | 5983 ft | 236 kts | 39° |
| 2026-05-06 17:47 | 52.04167 | 4.30298 | 5733 ft | 236 kts | 39° |
| 2026-05-06 17:47 | 52.05389 | 4.31920 | 5489 ft | 236 kts | 39° |
| 2026-05-06 17:47 | 52.06608 | 4.33539 | 5246 ft | 234 kts | 39° |
| 2026-05-06 17:48 | 52.07844 | 4.35182 | 4962 ft | 235 kts | 39° |
| 2026-05-06 17:48 | 52.09113 | 4.36870 | 4582 ft | 235 kts | 39° |
| 2026-05-06 17:48 | 52.10365 | 4.38536 | 4177 ft | 231 kts | 39° |
| 2026-05-06 17:48 | 52.11533 | 4.40093 | 3828 ft | 224 kts | 40° |
| 2026-05-06 17:49 | 52.12680 | 4.41623 | 3490 ft | 218 kts | 39° |
| 2026-05-06 17:49 | 52.13814 | 4.43136 | 3185 ft | 220 kts | 39° |
| 2026-05-06 17:49 | 52.14993 | 4.44710 | 2863 ft | 223 kts | 39° |
| 2026-05-06 17:49 | 52.16093 | 4.46179 | 2633 ft | 221 kts | 40° |
| 2026-05-06 17:50 | 52.17247 | 4.47723 | 2402 ft | 219 kts | 40° |
| 2026-05-06 17:50 | 52.18416 | 4.49288 | 2198 ft | 215 kts | 39° |
| 2026-05-06 17:50 | 52.19512 | 4.50754 | 2102 ft | 209 kts | 39° |
| 2026-05-06 17:50 | 52.20489 | 4.52236 | 2054 ft | 201 kts | 49° |
| 2026-05-06 17:51 | 52.21331 | 4.54091 | 1999 ft | 200 kts | 55° |
| 2026-05-06 17:51 | 52.22050 | 4.55925 | 1988 ft | 186 kts | 57° |
| 2026-05-06 17:51 | 52.22712 | 4.57642 | 1979 ft | 172 kts | 56° |
| 2026-05-06 17:51 | 52.23326 | 4.59236 | 1999 ft | 174 kts | 56° |
| 2026-05-06 17:52 | 52.23964 | 4.60892 | 1840 ft | 179 kts | 56° |
| 2026-05-06 17:52 | 52.24613 | 4.62576 | 1653 ft | 170 kts | 56° |
| 2026-05-06 17:52 | 52.25190 | 4.64074 | 1391 ft | 155 kts | 56° |
| 2026-05-06 17:52 | 52.25722 | 4.65454 | 1189 ft | 136 kts | 56° |
| 2026-05-06 17:53 | 52.26199 | 4.66692 | 1004 ft | 123 kts | 56° |
| 2026-05-06 17:53 | 52.26643 | 4.67843 | 844 ft | 120 kts | 55° |
| 2026-05-06 17:53 | 52.27084 | 4.68987 | 690 ft | 121 kts | 55° |
| 2026-05-06 17:53 | 52.27527 | 4.70129 | 509 ft | 118 kts | 56° |
| 2026-05-06 17:54 | 52.27968 | 4.71255 | 383 ft | 120 kts | 57° |
| 2026-05-06 17:54 | 52.28421 | 4.72429 | 226 ft | 125 kts | 57° |
| 2026-05-06 17:54 | 52.28867 | 4.73589 | 87 ft | 128 kts | 58° |
| 2026-05-06 17:54 | 52.29303 | 4.74742 | 11 ft | 117 kts | 59° |
| 2026-05-06 17:55 | 52.29676 | 4.75713 | 3 ft | 82 kts | 58° |
| 2026-05-06 17:55 | 52.29896 | 4.76294 | 1 ft | 38 kts | 58° |
| 2026-05-06 17:55 | 52.30020 | 4.76532 | 3 ft | 28 kts | 30° |
| 2026-05-06 17:55 | 52.30117 | 4.76616 | 4 ft | 4 kts | 27° |
| 2026-05-06 17:56 | 52.30118 | 4.76616 | 4 ft | 0 kts | 27° |
| 2026-05-06 17:56 | 52.30151 | 4.76644 | 4 ft | 7 kts | 27° |
| 2026-05-06 17:56 | 52.30198 | 4.76684 | 4 ft | 8 kts | 27° |
| 2026-05-06 17:56 | 52.30252 | 4.76728 | 4 ft | 10 kts | 26° |
| 2026-05-06 17:57 | 52.30307 | 4.76811 | 4 ft | 11 kts | 52° |
| 2026-05-06 17:57 | 52.30351 | 4.76914 | 4 ft | 11 kts | 57° |
| 2026-05-06 17:57 | 52.30391 | 4.77021 | 4 ft | 11 kts | 59° |
| 2026-05-06 17:57 | 52.30431 | 4.77132 | 4 ft | 11 kts | 59° |
| 2026-05-06 17:58 | 52.30471 | 4.77238 | 4 ft | 11 kts | 58° |
| 2026-05-06 17:58 | 52.30512 | 4.77346 | 4 ft | 11 kts | 57° |
| 2026-05-06 17:58 | 52.30554 | 4.77452 | 4 ft | 11 kts | 57° |
| 2026-05-06 17:58 | 52.30605 | 4.77548 | 4 ft | 11 kts | 36° |
| 2026-05-06 17:59 | 52.30678 | 4.77589 | 4 ft | 12 kts | 7° |
| 2026-05-06 17:59 | 52.30772 | 4.77597 | 4 ft | 15 kts | 2° |
| 2026-05-06 17:59 | 52.30880 | 4.77608 | 4 ft | 17 kts | 4° |
| 2026-05-06 17:59 | 52.31001 | 4.77618 | 4 ft | 17 kts | 2° |
| 2026-05-06 18:00 | 52.31121 | 4.77629 | 4 ft | 17 kts | 3° |
| 2026-05-06 18:00 | 52.31242 | 4.77641 | 4 ft | 17 kts | 4° |
| 2026-05-06 18:00 | 52.31364 | 4.77652 | 4 ft | 17 kts | 3° |
| 2026-05-06 18:00 | 52.31477 | 4.77606 | 4 ft | 17 kts | 323° |
| 2026-05-06 18:01 | 52.31557 | 4.77464 | 4 ft | 17 kts | 300° |
| 2026-05-06 18:01 | 52.31575 | 4.77330 | 4 ft | 10 kts | 270° |
| 2026-05-06 18:01 | 52.31573 | 4.77208 | 4 ft | 11 kts | 268° |
| 2026-05-06 18:01 | 52.31569 | 4.77077 | 4 ft | 12 kts | 267° |
| 2026-05-06 18:02 | 52.31563 | 4.76940 | 4 ft | 12 kts | 266° |
| 2026-05-06 18:02 | 52.31558 | 4.76800 | 4 ft | 12 kts | 268° |
| 2026-05-06 18:02 | 52.31534 | 4.76692 | 4 ft | 11 kts | 216° |
| 2026-05-06 18:02 | 52.31462 | 4.76655 | 5 ft | 11 kts | 203° |
| 2026-05-06 18:03 | 52.31394 | 4.76588 | 4 ft | 12 kts | 212° |
| 2026-05-06 18:03 | 52.31327 | 4.76515 | 4 ft | 13 kts | 216° |
| 2026-05-06 18:03 | 52.31271 | 4.76462 | 4 ft | 6 kts | 189° |
| 2026-05-06 18:03 | 52.31236 | 4.76494 | 4 ft | 6 kts | 137° |
| 2026-05-06 18:04 | 52.31225 | 4.76516 | 4 ft | 3 kts | 127° |
| 2026-05-06 18:04 | 52.31216 | 4.76538 | 4 ft | 2 kts | 125° |
| 2026-05-06 18:04 | 52.31211 | 4.76548 | 4 ft | 1 kts | 124° |
| 2026-05-06 18:04 | 52.31208 | 4.76558 | 4 ft | 1 kts | 124° |
| 2026-05-06 18:05 | 52.31206 | 4.76563 | 4 ft | 0 kts | 124° |